Time;durP1;ratioP1;P1;durP2;ratioP2;P2;SDS_P1;SDS_P2;PMS_P1;PMS_P2;Temp;Humidity;BMP_temperature;BMP_pressure;BME280_temperature;BME280_humidity;BME280_pressure;Samples;Min_cycle;Max_cycle;Signal;HPM_P1;HPM_P2
2022/06/03 00:01:06;;;;;;;;;;;;;;;;;;6206953;22;20331;-84
2022/06/03 00:03:34;;;;;;;;;;;;;;;;;;6203234;22;19998;-84
2022/06/03 00:06:01;;;;;;;;;;;;;;;;;;6233884;22;19926;-84
2022/06/03 00:08:28;;;;;;;;;;;;;;;;;;6206642;22;19920;-84
2022/06/03 00:10:54;;;;;;;;;;;;;;;;;;6235683;22;19950;-84
2022/06/03 00:13:21;;;;;;;;;;;;;;;;;;6208169;22;19954;-84
2022/06/03 00:15:47;;;;;;;;;;;;;;;;;;6232660;22;19929;-84
2022/06/03 00:18:17;;;;;;;;;;;;;;;;;;6206725;22;19986;-84
2022/06/03 00:20:44;;;;;;;;;;;;;;;;;;6231856;22;20328;-84
2022/06/03 00:23:12;;;;;;;;;;;;;;;;;;6231697;22;19919;-84
2022/06/03 00:25:38;;;;;;;;;;;;;;;;;;6230143;22;19919;-84
2022/06/03 00:28:11;;;;;;;;;;;;;;;;;;6206715;22;19926;-84
2022/06/03 00:30:40;;;;;;;;;;;;;;;;;;6258055;22;20499;-84
2022/06/03 00:33:16;;;;;;;;;;;;;;;;;;6209811;22;19945;-84
2022/06/03 00:35:45;;;;;;;;;;;;;;;;;;6165911;23;20290;-84
2022/06/03 00:38:11;;;;;;;;;;;;;;;;;;6141623;23;19919;-84
2022/06/03 00:40:47;;;;;;;;;;;;;;;;;;6140437;23;20401;-84
2022/06/03 00:43:14;;;;;;;;;;;;;;;;;;6141938;23;20072;-84
2022/06/03 00:45:41;;;;;;;;;;;;;;;;;;6166369;23;20352;-84
2022/06/03 00:48:08;;;;;;;;;;;;;;;;;;6167881;23;19932;-84
2022/06/03 00:50:36;;;;;;;;;;;;;;;;;;6166120;23;19968;-84
2022/06/03 00:53:02;;;;;;;;;;;;;;;;;;6168047;23;20098;-84
2022/06/03 00:55:31;;;;;;;;;;;;;;;;;;6165690;23;19970;-84
2022/06/03 00:58:11;;;;;;;;;;;;;;;;;;6169151;23;19928;-84
2022/06/03 01:00:40;;;;;;;;;;;;;;;;;;6137953;23;20263;-84
2022/06/03 01:03:07;;;;;;;;;;;;;;;;;;6166878;23;19920;-84
2022/06/03 01:05:34;;;;;;;;;;;;;;;;;;6162634;23;20281;-84
2022/06/03 01:08:01;;;;;;;;;;;;;;;;;;6176317;23;19965;-84
2022/06/03 01:10:28;;;;;;;;;;;;;;;;;;6175191;23;19920;-84
2022/06/03 01:12:56;;;;;;;;;;;;;;;;;;6179112;23;19982;-84
2022/06/03 01:15:23;;;;;;;;;;;;;;;;;;6175915;23;19930;-84
2022/06/03 01:17:49;;;;;;;;;;;;;;;;;;6202605;23;19925;-84
2022/06/03 01:20:16;;;;;;;;;;;;;;;;;;6203623;23;19919;-84
2022/06/03 01:22:43;;;;;;;;;;;;;;;;;;6173851;23;19926;-84
2022/06/03 01:25:28;;;;;;;;;;;;;;;;;;6203094;23;20348;-84
2022/06/03 01:27:56;;;;;;;;;;;;;;;;;;6178170;23;19924;-84
2022/06/03 01:30:24;;;;;;;;;;;;;;;;;;6175372;23;20292;-84
2022/06/03 01:32:53;;;;;;;;;;;;;;;;;;6229615;23;19919;-84
2022/06/03 01:35:29;;;;;;;;;;;;;;;;;;6176365;23;19920;-84
2022/06/03 01:37:56;;;;;;;;;;;;;;;;;;6202225;23;19928;-84
2022/06/03 01:40:25;;;;;;;;;;;;;;;;;;6227165;23;19938;-84
2022/06/03 01:42:53;;;;;;;;;;;;;;;;;;6201602;23;19916;-84
2022/06/03 01:45:20;;;;;;;;;;;;;;;;;;6176152;23;19920;-84
2022/06/03 01:47:46;;;;;;;;;;;;;;;;;;6226518;23;20241;-84
2022/06/03 01:50:13;;;;;;;;;;;;;;;;;;6178621;23;19919;-84
2022/06/03 01:52:40;;;;;;;;;;;;;;;;;;6177248;23;19927;-84
2022/06/03 01:55:06;;;;;;;;;;;;;;;;;;6177952;23;19958;-84
2022/06/03 01:57:33;;;;;;;;;;;;;;;;;;6166285;23;19920;-84
2022/06/03 01:59:59;;;;;;;;;;;;;;;;;;6200671;23;20358;-84
2022/06/03 02:02:25;;;;;;;;;;;;;;;;;;6200469;23;19919;-84
2022/06/03 02:04:54;;;;;;;;;;;;;;;;;;6229449;23;19927;-84
2022/06/03 02:07:23;;;;;;;;;;;;;;;;;;6230523;22;19926;-84
2022/06/03 02:09:52;;;;;;;;;;;;;;;;;;6167869;23;19920;-84
2022/06/03 02:12:17;;;;;;;;;;;;;;;;;;6142436;23;20055;-84
2022/06/03 02:14:45;;;;;;;;;;;;;;;;;;6166194;23;19963;-84
2022/06/03 02:17:12;;;;;;;;;;;;;;;;;;6166231;23;20772;-84
2022/06/03 02:19:39;;;;;;;;;;;;;;;;;;6163147;23;20452;-84
2022/06/03 02:22:06;;;;;;;;;;;;;;;;;;6140749;23;19924;-88
2022/06/03 02:24:33;;;;;;;;;;;;;;;;;;6138758;23;19920;-88
2022/06/03 02:27:00;;;;;;;;;;;;;;;;;;6140557;23;19920;-88
2022/06/03 02:32:11;;;;;;;;;;;;;;;;;;6165536;23;19932;-88
2022/06/03 02:34:38;;;;;;;;;;;;;;;;;;6137440;23;19924;-88
2022/06/03 02:37:09;;;;;;;;;;;;;;;;;;6164722;23;19927;-88
2022/06/03 02:39:37;;;;;;;;;;;;;;;;;;6139303;23;19920;-88
2022/06/03 02:42:04;;;;;;;;;;;;;;;;;;6140815;23;20042;-88
2022/06/03 02:44:31;;;;;;;;;;;;;;;;;;6136623;23;19927;-88
2022/06/03 02:47:00;;;;;;;;;;;;;;;;;;6167385;23;19955;-88
2022/06/03 02:49:27;;;;;;;;;;;;;;;;;;6137721;23;19948;-89
2022/06/03 02:51:54;;;;;;;;;;;;;;;;;;6171839;23;19920;-89
2022/06/03 02:54:20;;;;;;;;;;;;;;;;;;6142092;23;19931;-89
2022/06/03 02:57:06;;;;;;;;;;;;;;;;;;6166215;23;20387;-88
2022/06/03 02:59:32;;;;;;;;;;;;;;;;;;6161805;23;19920;-89
2022/06/03 03:01:59;;;;;;;;;;;;;;;;;;6165064;23;19925;-89
2022/06/03 03:04:45;;;;;;;;;;;;;;;;;;6159976;23;19986;-89
2022/06/03 03:07:12;;;;;;;;;;;;;;;;;;6164321;23;19920;-89
2022/06/03 03:09:40;;;;;;;;;;;;;;;;;;6138056;23;19959;-89
2022/06/03 03:12:24;;;;;;;;;;;;;;;;;;6171258;23;19942;-89
2022/06/03 03:14:59;;;;;;;;;;;;;;;;;;6197228;23;21253;-88
2022/06/03 03:17:26;;;;;;;;;;;;;;;;;;6173929;23;19969;-89
2022/06/03 03:19:52;;;;;;;;;;;;;;;;;;6200862;23;19926;-89
2022/06/03 03:22:18;;;;;;;;;;;;;;;;;;6201026;23;19920;-89
2022/06/03 03:24:45;;;;;;;;;;;;;;;;;;6173617;23;19923;-89
2022/06/03 03:27:12;;;;;;;;;;;;;;;;;;6203053;23;19919;-88
2022/06/03 03:29:40;;;;;;;;;;;;;;;;;;6174888;23;19920;-88
2022/06/03 03:32:22;;;;;;;;;;;;;;;;;;6229237;23;19966;-88
2022/06/03 03:34:48;;;;;;;;;;;;;;;;;;6228558;23;19919;-88
2022/06/03 03:37:15;;;;;;;;;;;;;;;;;;6176066;23;19950;-88
2022/06/03 03:39:42;;;;;;;;;;;;;;;;;;6173109;23;20392;-88
2022/06/03 03:42:08;;;;;;;;;;;;;;;;;;6176106;23;19916;-89
2022/06/03 03:44:34;;;;;;;;;;;;;;;;;;6173628;23;20132;-88
2022/06/03 03:47:00;;;;;;;;;;;;;;;;;;6200366;23;19919;-89
2022/06/03 03:49:28;;;;;;;;;;;;;;;;;;6199156;23;19919;-88
2022/06/03 03:51:55;;;;;;;;;;;;;;;;;;6179721;23;19970;-88
2022/06/03 03:54:21;;;;;;;;;;;;;;;;;;6179591;23;20359;-89
2022/06/03 03:57:05;;;;;;;;;;;;;;;;;;6210053;23;20013;-88
2022/06/03 03:59:32;;;;;;;;;;;;;;;;;;6169850;23;20336;-89
2022/06/03 04:01:58;;;;;;;;;;;;;;;;;;6173533;23;19974;-89
2022/06/03 04:04:24;;;;;;;;;;;;;;;;;;6146418;23;19920;-88
2022/06/03 04:06:54;;;;;;;;;;;;;;;;;;6173931;23;19923;-89
2022/06/03 04:09:20;;;;;;;;;;;;;;;;;;6149378;23;19926;-89
2022/06/03 04:11:53;;;;;;;;;;;;;;;;;;6173169;23;19990;-88
2022/06/03 04:14:24;;;;;;;;;;;;;;;;;;6172917;23;19920;-88
2022/06/03 04:16:50;;;;;;;;;;;;;;;;;;6171723;23;19954;-88
2022/06/03 04:19:17;;;;;;;;;;;;;;;;;;6172384;23;19920;-88
2022/06/03 04:21:46;;;;;;;;;;;;;;;;;;6198995;23;19926;-88
2022/06/03 04:24:13;;;;;;;;;;;;;;;;;;6148105;23;19959;-88
2022/06/03 04:26:41;;;;;;;;;;;;;;;;;;6145143;23;19931;-88
2022/06/03 04:29:34;;;;;;;;;;;;;;;;;;6147328;23;19946;-89
2022/06/03 04:32:11;;;;;;;;;;;;;;;;;;6187367;23;19927;-89
2022/06/03 04:34:38;;;;;;;;;;;;;;;;;;6144366;23;20277;-88
2022/06/03 04:37:04;;;;;;;;;;;;;;;;;;6147991;23;19955;-89
2022/06/03 04:39:31;;;;;;;;;;;;;;;;;;6169779;23;19958;-89
2022/06/03 04:41:58;;;;;;;;;;;;;;;;;;6149150;23;20273;-89
2022/06/03 04:44:24;;;;;;;;;;;;;;;;;;6169858;23;19931;-89
2022/06/03 04:46:57;;;;;;;;;;;;;;;;;;6173457;23;19930;-89
2022/06/03 04:49:23;;;;;;;;;;;;;;;;;;6145837;23;19920;-89
2022/06/03 04:51:49;;;;;;;;;;;;;;;;;;6149909;23;19946;-89
2022/06/03 04:54:17;;;;;;;;;;;;;;;;;;6149011;23;19927;-89
2022/06/03 04:56:43;;;;;;;;;;;;;;;;;;6172014;23;19920;-89
2022/06/03 04:59:10;;;;;;;;;;;;;;;;;;6172263;23;20725;-89
2022/06/03 05:01:38;;;;;;;;;;;;;;;;;;6200943;23;20291;-88
2022/06/03 05:04:05;;;;;;;;;;;;;;;;;;6236672;22;19926;-89
2022/06/03 05:06:33;;;;;;;;;;;;;;;;;;6234388;22;19919;-89
2022/06/03 05:08:59;;;;;;;;;;;;;;;;;;6235363;22;19923;-89
2022/06/03 05:11:24;;;;;;;;;;;;;;;;;;6209280;22;20050;-89
2022/06/03 05:13:52;;;;;;;;;;;;;;;;;;6234943;22;19920;-89
2022/06/03 05:16:21;;;;;;;;;;;;;;;;;;6235356;22;19957;-89
2022/06/03 05:18:49;;;;;;;;;;;;;;;;;;6236763;22;19919;-89
2022/06/03 05:21:23;;;;;;;;;;;;;;;;;;6237423;22;20336;-88
2022/06/03 05:23:49;;;;;;;;;;;;;;;;;;6211115;22;19919;-89
2022/06/03 05:26:16;;;;;;;;;;;;;;;;;;6238842;22;19926;-89
2022/06/03 05:28:42;;;;;;;;;;;;;;;;;;6211809;22;20479;-89
2022/06/03 05:31:28;;;;;;;;;;;;;;;;;;6248187;22;19951;-89
2022/06/03 05:34:10;;;;;;;;;;;;;;;;;;6265468;22;19925;-90
2022/06/03 05:36:37;;;;;;;;;;;;;;;;;;6210397;22;19926;-89
2022/06/03 05:39:05;;;;;;;;;;;;;;;;;;6238093;22;19935;-90
2022/06/03 05:44:31;;;;;;;;;;;;;;;;;;6167277;23;20447;-89
2022/06/03 05:46:57;;;;;;;;;;;;;;;;;;6147167;23;19920;-90
2022/06/03 05:49:25;;;;;;;;;;;;;;;;;;6145345;23;19974;-89
2022/06/03 05:51:51;;;;;;;;;;;;;;;;;;6145494;23;19926;-89
2022/06/03 05:54:17;;;;;;;;;;;;;;;;;;6146224;23;19966;-89
2022/06/03 05:56:44;;;;;;;;;;;;;;;;;;6146565;23;19954;-89
2022/06/03 05:59:10;;;;;;;;;;;;;;;;;;6146514;23;19924;-89
2022/06/03 06:01:41;;;;;;;;;;;;;;;;;;6168582;23;20308;-89
2022/06/03 06:04:09;;;;;;;;;;;;;;;;;;6144890;23;19920;-89
2022/06/03 06:06:43;;;;;;;;;;;;;;;;;;6170240;23;20008;-89
2022/06/03 06:09:11;;;;;;;;;;;;;;;;;;6148269;23;19920;-89
2022/06/03 06:11:38;;;;;;;;;;;;;;;;;;6145962;22;20035;-89
2022/06/03 06:14:10;;;;;;;;;;;;;;;;;;6238565;22;19994;-89
2022/06/03 06:16:37;;;;;;;;;;;;;;;;;;6235245;22;19974;-89
2022/06/03 06:19:04;;;;;;;;;;;;;;;;;;6266115;22;20247;-90
2022/06/03 06:21:36;;;;;;;;;;;;;;;;;;6263969;22;19919;-89
2022/06/03 06:24:05;;;;;;;;;;;;;;;;;;6238287;22;19982;-89
2022/06/03 06:26:33;;;;;;;;;;;;;;;;;;6261148;22;19961;-89
2022/06/03 06:29:00;;;;;;;;;;;;;;;;;;6238659;22;19923;-90
2022/06/03 06:31:26;;;;;;;;;;;;;;;;;;6235832;22;19915;-89
2022/06/03 06:33:54;;;;;;;;;;;;;;;;;;6238045;22;20006;-89
2022/06/03 06:36:23;;;;;;;;;;;;;;;;;;6263028;22;19926;-90
2022/06/03 06:38:50;;;;;;;;;;;;;;;;;;6237076;22;19930;-89
2022/06/03 06:41:31;;;;;;;;;;;;;;;;;;6239291;22;19990;-89
2022/06/03 06:43:58;;;;;;;;;;;;;;;;;;6239398;22;19942;-90
2022/06/03 06:46:25;;;;;;;;;;;;;;;;;;6234205;22;19919;-89
2022/06/03 06:48:52;;;;;;;;;;;;;;;;;;6237507;22;19919;-89
2022/06/03 06:51:18;;;;;;;;;;;;;;;;;;6213788;22;19922;-89
2022/06/03 06:53:51;;;;;;;;;;;;;;;;;;6213523;22;19973;-89
2022/06/03 06:56:17;;;;;;;;;;;;;;;;;;6211820;22;19950;-89
2022/06/03 06:58:50;;;;;;;;;;;;;;;;;;6209650;22;19919;-89
2022/06/03 07:01:19;;;;;;;;;;;;;;;;;;6234137;23;19926;-85
2022/06/03 07:03:46;;;;;;;;;;;;;;;;;;6230966;23;19920;-85
2022/06/03 07:06:13;;;;;;;;;;;;;;;;;;6207036;23;19924;-86
2022/06/03 07:08:40;;;;;;;;;;;;;;;;;;6231419;23;19919;-87
2022/06/03 07:11:08;;;;;;;;;;;;;;;;;;6231371;23;19926;-87
2022/06/03 07:13:45;;;;;;;;;;;;;;;;;;6231867;23;20340;-85
2022/06/03 07:16:14;;;;;;;;;;;;;;;;;;6231869;23;19972;-86
2022/06/03 07:21:29;;;;;;;;;;;;;;;;;;6230226;23;19915;-85
2022/06/03 07:23:56;;;;;;;;;;;;;;;;;;6208067;23;19930;-85
2022/06/03 07:26:42;;;;;;;;;;;;;;;;;;6230950;23;19934;-85
2022/06/03 07:29:08;;;;;;;;;;;;;;;;;;6209391;23;19965;-85
2022/06/03 07:31:35;;;;;;;;;;;;;;;;;;6206646;23;19998;-84
2022/06/03 07:34:02;;;;;;;;;;;;;;;;;;6234791;23;19931;-85
2022/06/03 07:36:43;;;;;;;;;;;;;;;;;;6199722;23;20063;-86
2022/06/03 07:39:10;;;;;;;;;;;;;;;;;;6202558;23;20248;-87
2022/06/03 07:41:57;;;;;;;;;;;;;;;;;;6181983;23;20391;-85
2022/06/03 07:44:24;;;;;;;;;;;;;;;;;;6199896;23;19919;-85
2022/06/03 07:47:00;;;;;;;;;;;;;;;;;;6203683;23;19919;-85
2022/06/03 07:49:27;;;;;;;;;;;;;;;;;;6175391;23;19974;-85
2022/06/03 07:51:53;;;;;;;;;;;;;;;;;;6202340;23;19983;-85
2022/06/03 07:54:21;;;;;;;;;;;;;;;;;;6149258;23;19920;-85
2022/06/03 07:56:54;;;;;;;;;;;;;;;;;;6200373;23;19920;-85
2022/06/03 07:59:20;;;;;;;;;;;;;;;;;;6198679;23;19920;-84
2022/06/03 08:01:49;;;;;;;;;;;;;;;;;;6178738;23;19926;-85
2022/06/03 08:04:16;;;;;;;;;;;;;;;;;;6202384;23;20002;-85
2022/06/03 08:12:21;;;;;;;;;;;;;;;;;;6228739;23;19969;-86
2022/06/03 08:14:47;;;;;;;;;;;;;;;;;;6230919;23;19920;-85
2022/06/03 08:17:13;;;;;;;;;;;;;;;;;;6234078;23;19950;-85
2022/06/03 08:19:41;;;;;;;;;;;;;;;;;;6231035;23;19916;-85
2022/06/03 08:22:08;;;;;;;;;;;;;;;;;;6234544;23;19954;-86
2022/06/03 08:24:35;;;;;;;;;;;;;;;;;;6229871;23;19926;-86
2022/06/03 08:27:08;;;;;;;;;;;;;;;;;;6235735;22;19927;-86
2022/06/03 08:29:34;;;;;;;;;;;;;;;;;;6230769;23;19976;-85
2022/06/03 08:32:01;;;;;;;;;;;;;;;;;;6208908;23;19998;-86
2022/06/03 08:34:28;;;;;;;;;;;;;;;;;;6231634;23;20514;-85
2022/06/03 08:36:55;;;;;;;;;;;;;;;;;;6209533;23;19953;-86
2022/06/03 08:39:21;;;;;;;;;;;;;;;;;;6209352;23;19926;-86
2022/06/03 08:41:57;;;;;;;;;;;;;;;;;;6212726;23;19986;-85
2022/06/03 08:44:24;;;;;;;;;;;;;;;;;;6208697;23;19966;-86
2022/06/03 08:46:50;;;;;;;;;;;;;;;;;;6236273;23;19915;-86
2022/06/03 08:49:16;;;;;;;;;;;;;;;;;;6235975;23;19938;-86
2022/06/03 08:51:43;;;;;;;;;;;;;;;;;;6233561;23;20343;-86
2022/06/03 08:54:12;;;;;;;;;;;;;;;;;;6235853;23;19990;-86
2022/06/03 08:56:58;;;;;;;;;;;;;;;;;;6236476;23;19973;-86
2022/06/03 08:59:25;;;;;;;;;;;;;;;;;;6238133;22;20336;-86
2022/06/03 09:01:53;;;;;;;;;;;;;;;;;;6266157;22;20007;-86
2022/06/03 09:04:30;;;;;;;;;;;;;;;;;;6238742;22;19982;-86
2022/06/03 09:06:58;;;;;;;;;;;;;;;;;;6240042;22;19929;-86
2022/06/03 09:09:27;;;;;;;;;;;;;;;;;;6237407;22;19958;-85
2022/06/03 09:11:53;;;;;;;;;;;;;;;;;;6265972;22;20205;-84
2022/06/03 09:14:21;;;;;;;;;;;;;;;;;;6265575;22;19919;-84
2022/06/03 09:16:46;;;;;;;;;;;;;;;;;;6263949;22;20316;-84
2022/06/03 09:19:15;;;;;;;;;;;;;;;;;;6266639;22;19915;-84
2022/06/03 09:21:43;;;;;;;;;;;;;;;;;;6208461;22;19942;-84
2022/06/03 09:24:18;;;;;;;;;;;;;;;;;;6268119;22;19961;-84
2022/06/03 09:26:46;;;;;;;;;;;;;;;;;;6263664;22;19923;-84
2022/06/03 09:29:12;;;;;;;;;;;;;;;;;;6214349;22;19972;-84
2022/06/03 09:31:39;;;;;;;;;;;;;;;;;;6262366;22;19978;-83
2022/06/03 09:34:06;;;;;;;;;;;;;;;;;;6235276;22;19951;-83
2022/06/03 09:36:34;;;;;;;;;;;;;;;;;;6262703;22;19919;-83
2022/06/03 09:39:01;;;;;;;;;;;;;;;;;;6265791;22;20324;-83
2022/06/03 09:41:27;;;;;;;;;;;;;;;;;;6263313;22;20684;-84
2022/06/03 09:44:08;;;;;;;;;;;;;;;;;;6168933;23;19920;-83
2022/06/03 09:46:34;;;;;;;;;;;;;;;;;;6140481;23;20348;-83
2022/06/03 09:49:00;;;;;;;;;;;;;;;;;;6168082;23;19920;-84
2022/06/03 09:54:16;;;;;;;;;;;;;;;;;;6171667;23;19931;-84
2022/06/03 09:56:46;;;;;;;;;;;;;;;;;;6143998;23;20289;-83
2022/06/03 09:59:12;;;;;;;;;;;;;;;;;;6146880;23;19927;-84
2022/06/03 10:01:42;;;;;;;;;;;;;;;;;;6145246;23;19920;-84
2022/06/03 10:04:09;;;;;;;;;;;;;;;;;;6172077;23;19971;-84
2022/06/03 10:06:46;;;;;;;;;;;;;;;;;;6144524;23;19982;-84
2022/06/03 10:15:37;;;;;;;;;;;;;;;;;;6196747;22;19919;-84
2022/06/03 10:17:43;;;;;;;;;;;;;;;;;;6234456;22;19926;-84
2022/06/03 10:20:11;;;;;;;;;;;;;;;;;;6263079;22;19926;-84
2022/06/03 10:22:52;;;;;;;;;;;;;;;;;;6197682;23;19923;-84
2022/06/03 10:25:19;;;;;;;;;;;;;;;;;;6149719;23;20019;-83
2022/06/03 10:28:01;;;;;;;;;;;;;;;;;;6197180;23;20011;-84
2022/06/03 10:30:28;;;;;;;;;;;;;;;;;;6169092;23;19920;-84
2022/06/03 10:32:56;;;;;;;;;;;;;;;;;;6174746;23;20745;-84
2022/06/03 10:35:34;;;;;;;;;;;;;;;;;;6201233;23;19950;-83
2022/06/03 10:38:13;;;;;;;;;;;;;;;;;;6203204;23;19966;-93
2022/06/03 10:40:43;;;;;;;;;;;;;;;;;;6118693;23;19921;-93
2022/06/03 10:43:11;;;;;;;;;;;;;;;;;;6121491;23;20043;-93
2022/06/03 10:45:38;;;;;;;;;;;;;;;;;;6143371;23;19920;-93
2022/06/03 10:48:04;;;;;;;;;;;;;;;;;;6096075;23;19932;-94
2022/06/03 10:50:30;;;;;;;;;;;;;;;;;;6094333;23;19917;-93
2022/06/03 11:01:12;;;;;;;;;;;;;;;;;;6179608;23;19920;-92
2022/06/03 11:03:41;;;;;;;;;;;;;;;;;;6200859;23;20287;-93
2022/06/03 11:06:11;;;;;;;;;;;;;;;;;;6205729;23;19916;-93
2022/06/03 11:08:39;;;;;;;;;;;;;;;;;;6176317;23;19945;-94
2022/06/03 11:11:06;;;;;;;;;;;;;;;;;;6190498;23;20325;-94
2022/06/03 11:13:42;;;;;;;;;;;;;;;;;;6235510;23;19982;-93
2022/06/03 11:16:09;;;;;;;;;;;;;;;;;;6235063;23;19915;-93
2022/06/03 11:18:57;;;;;;;;;;;;;;;;;;6235918;23;19962;-93
2022/06/03 11:21:24;;;;;;;;;;;;;;;;;;6233972;23;19916;-94
2022/06/03 11:23:52;;;;;;;;;;;;;;;;;;6211318;23;20052;-94
2022/06/03 11:26:18;;;;;;;;;;;;;;;;;;6210016;23;19942;-94
2022/06/03 11:28:46;;;;;;;;;;;;;;;;;;6208104;23;20320;-94
2022/06/03 11:31:13;;;;;;;;;;;;;;;;;;6212356;23;19915;-93
2022/06/03 11:33:40;;;;;;;;;;;;;;;;;;6232731;23;19924;-95
2022/06/03 11:36:06;;;;;;;;;;;;;;;;;;6235771;23;19927;-95
2022/06/03 11:38:34;;;;;;;;;;;;;;;;;;6233432;23;19922;-94
2022/06/03 11:41:01;;;;;;;;;;;;;;;;;;6236477;23;19949;-93
2022/06/03 11:43:28;;;;;;;;;;;;;;;;;;6234862;23;19950;-94
2022/06/03 11:46:04;;;;;;;;;;;;;;;;;;6237594;23;19969;-93
2022/06/03 11:48:32;;;;;;;;;;;;;;;;;;6233182;23;19998;-94
2022/06/03 11:50:59;;;;;;;;;;;;;;;;;;6209266;23;19916;-93
2022/06/03 11:53:27;;;;;;;;;;;;;;;;;;6232956;23;19973;-94
2022/06/03 11:55:54;;;;;;;;;;;;;;;;;;6235870;23;20332;-94
2022/06/03 11:58:24;;;;;;;;;;;;;;;;;;6235723;23;19965;-94
2022/06/03 12:00:50;;;;;;;;;;;;;;;;;;6235899;23;20251;-93
2022/06/03 12:03:24;;;;;;;;;;;;;;;;;;6210740;23;19955;-94
2022/06/03 12:05:50;;;;;;;;;;;;;;;;;;6236391;23;19978;-94
2022/06/03 12:08:32;;;;;;;;;;;;;;;;;;6235381;23;19943;-94
2022/06/03 12:10:58;;;;;;;;;;;;;;;;;;6238555;23;19926;-94
2022/06/03 12:13:29;;;;;;;;;;;;;;;;;;6234243;23;20303;-93
2022/06/03 12:16:00;;;;;;;;;;;;;;;;;;6212287;23;19916;-94
2022/06/03 12:18:39;;;;;;;;;;;;;;;;;;6237137;23;19927;-94
2022/06/03 12:21:15;;;;;;;;;;;;;;;;;;6176101;23;19919;-86
2022/06/03 12:23:43;;;;;;;;;;;;;;;;;;6202336;23;20431;-84
2022/06/03 12:26:09;;;;;;;;;;;;;;;;;;6233376;23;19962;-83
2022/06/03 12:28:35;;;;;;;;;;;;;;;;;;6229921;23;19923;-83
2022/06/03 12:31:02;;;;;;;;;;;;;;;;;;6235035;23;19915;-83
2022/06/03 12:33:30;;;;;;;;;;;;;;;;;;6208024;23;20348;-83
2022/06/03 12:35:57;;;;;;;;;;;;;;;;;;6236301;23;20573;-83
2022/06/03 12:38:25;;;;;;;;;;;;;;;;;;6232574;23;19919;-83
2022/06/03 12:40:52;;;;;;;;;;;;;;;;;;6236751;23;19915;-83
2022/06/03 12:43:18;;;;;;;;;;;;;;;;;;6235791;23;19951;-83
2022/06/03 12:45:45;;;;;;;;;;;;;;;;;;6236332;23;19920;-84
2022/06/03 12:48:15;;;;;;;;;;;;;;;;;;6238513;23;19915;-84
2022/06/03 12:50:42;;;;;;;;;;;;;;;;;;6231606;23;19994;-84
2022/06/03 12:53:08;;;;;;;;;;;;;;;;;;6237341;23;20321;-84
2022/06/03 12:55:36;;;;;;;;;;;;;;;;;;6235196;23;19919;-83
2022/06/03 12:58:02;;;;;;;;;;;;;;;;;;6236869;23;19979;-83
2022/06/03 13:00:29;;;;;;;;;;;;;;;;;;6232266;23;19924;-84
2022/06/03 13:02:56;;;;;;;;;;;;;;;;;;6238094;23;19916;-84
2022/06/03 13:05:22;;;;;;;;;;;;;;;;;;6210499;23;19926;-84
2022/06/03 13:07:55;;;;;;;;;;;;;;;;;;6239033;23;19927;-84
2022/06/03 13:10:22;;;;;;;;;;;;;;;;;;6210833;23;20391;-84
2022/06/03 13:12:48;;;;;;;;;;;;;;;;;;6210751;23;19934;-84
2022/06/03 13:15:15;;;;;;;;;;;;;;;;;;6232869;23;19916;-83
2022/06/03 13:17:54;;;;;;;;;;;;;;;;;;6234405;23;20147;-84
2022/06/03 13:20:21;;;;;;;;;;;;;;;;;;6236560;23;19915;-83
2022/06/03 13:22:47;;;;;;;;;;;;;;;;;;6236152;23;20461;-84
2022/06/03 13:25:13;;;;;;;;;;;;;;;;;;6210309;23;19951;-84
2022/06/03 13:27:59;;;;;;;;;;;;;;;;;;6210737;23;19969;-84
2022/06/03 13:30:26;;;;;;;;;;;;;;;;;;6233627;23;19923;-84
2022/06/03 13:32:53;;;;;;;;;;;;;;;;;;6237215;23;20244;-84
2022/06/03 13:35:20;;;;;;;;;;;;;;;;;;6235080;23;19969;-84
2022/06/03 13:37:49;;;;;;;;;;;;;;;;;;6238547;23;20324;-84
2022/06/03 13:40:17;;;;;;;;;;;;;;;;;;6211514;23;19920;-84
2022/06/03 13:42:58;;;;;;;;;;;;;;;;;;6231114;23;20287;-84
2022/06/03 13:45:25;;;;;;;;;;;;;;;;;;6229373;23;19920;-84
2022/06/03 13:47:52;;;;;;;;;;;;;;;;;;6205919;23;19926;-83
2022/06/03 13:50:19;;;;;;;;;;;;;;;;;;6176458;23;19958;-84
2022/06/03 13:52:46;;;;;;;;;;;;;;;;;;6228755;23;20287;-83
2022/06/03 13:55:13;;;;;;;;;;;;;;;;;;6181761;23;19920;-84
2022/06/03 13:57:40;;;;;;;;;;;;;;;;;;6228530;23;19926;-83
2022/06/03 14:00:06;;;;;;;;;;;;;;;;;;6177923;23;19923;-83
2022/06/03 14:02:33;;;;;;;;;;;;;;;;;;6176815;23;19943;-84
2022/06/03 14:04:59;;;;;;;;;;;;;;;;;;6178749;23;19920;-83
2022/06/03 14:07:26;;;;;;;;;;;;;;;;;;6228959;23;19915;-84
2022/06/03 14:09:53;;;;;;;;;;;;;;;;;;6232118;23;20003;-83
2022/06/03 14:12:20;;;;;;;;;;;;;;;;;;6232260;23;19923;-84
2022/06/03 14:15:02;;;;;;;;;;;;;;;;;;6213760;23;20013;-83
2022/06/03 14:17:30;;;;;;;;;;;;;;;;;;6202733;23;20331;-84
2022/06/03 14:19:57;;;;;;;;;;;;;;;;;;6210651;23;19998;-83
2022/06/03 14:22:23;;;;;;;;;;;;;;;;;;6207779;23;19916;-84
2022/06/03 14:24:49;;;;;;;;;;;;;;;;;;6206699;23;19926;-83
2022/06/03 14:27:16;;;;;;;;;;;;;;;;;;6232942;23;19923;-83
2022/06/03 14:29:43;;;;;;;;;;;;;;;;;;6206318;23;19923;-84
2022/06/03 14:32:10;;;;;;;;;;;;;;;;;;6208906;23;19916;-84
2022/06/03 14:34:38;;;;;;;;;;;;;;;;;;6206646;23;19951;-84
2022/06/03 14:37:03;;;;;;;;;;;;;;;;;;6210670;23;20256;-83
2022/06/03 14:39:51;;;;;;;;;;;;;;;;;;6234052;23;19987;-83
2022/06/03 14:42:37;;;;;;;;;;;;;;;;;;6115295;23;20357;-84
2022/06/03 14:45:05;;;;;;;;;;;;;;;;;;6093249;23;19959;-84
2022/06/03 14:47:32;;;;;;;;;;;;;;;;;;6115174;23;19920;-84
2022/06/03 14:50:00;;;;;;;;;;;;;;;;;;6120263;23;19917;-84
2022/06/03 14:52:29;;;;;;;;;;;;;;;;;;6139374;23;19960;-84
2022/06/03 14:54:57;;;;;;;;;;;;;;;;;;6116918;23;19920;-84
2022/06/03 14:57:27;;;;;;;;;;;;;;;;;;6114334;23;19927;-83
2022/06/03 14:59:53;;;;;;;;;;;;;;;;;;6123127;23;19931;-84
2022/06/03 15:02:19;;;;;;;;;;;;;;;;;;6122115;23;19927;-83
2022/06/03 15:04:46;;;;;;;;;;;;;;;;;;6119833;23;19962;-83
2022/06/03 15:07:28;;;;;;;;;;;;;;;;;;6170014;23;19926;-83
2022/06/03 15:09:55;;;;;;;;;;;;;;;;;;6149815;23;20014;-84
2022/06/03 15:12:22;;;;;;;;;;;;;;;;;;6172450;23;19931;-84
2022/06/03 15:15:05;;;;;;;;;;;;;;;;;;6142374;23;20352;-84
2022/06/03 15:17:32;;;;;;;;;;;;;;;;;;6139488;23;19955;-84
2022/06/03 15:20:14;;;;;;;;;;;;;;;;;;6122614;23;19927;-83
2022/06/03 15:22:41;;;;;;;;;;;;;;;;;;6141081;23;19924;-83
2022/06/03 15:25:08;;;;;;;;;;;;;;;;;;6143970;23;19921;-83
2022/06/03 15:27:34;;;;;;;;;;;;;;;;;;6195598;23;20055;-83
2022/06/03 15:30:02;;;;;;;;;;;;;;;;;;6153621;23;19959;-83
2022/06/03 15:32:29;;;;;;;;;;;;;;;;;;6173964;23;20264;-83
2022/06/03 15:34:55;;;;;;;;;;;;;;;;;;6202455;23;20820;-84
2022/06/03 15:37:23;;;;;;;;;;;;;;;;;;6149779;23;19962;-82
2022/06/03 15:39:49;;;;;;;;;;;;;;;;;;6177437;23;19927;-82
2022/06/03 15:42:16;;;;;;;;;;;;;;;;;;6201092;23;19984;-82
2022/06/03 15:44:48;;;;;;;;;;;;;;;;;;6197208;23;19920;-82
2022/06/03 15:47:15;;;;;;;;;;;;;;;;;;6205054;23;19951;-86
2022/06/03 15:49:41;;;;;;;;;;;;;;;;;;6154515;23;20527;-84
2022/06/03 15:52:08;;;;;;;;;;;;;;;;;;6208445;23;19927;-83
2022/06/03 15:54:35;;;;;;;;;;;;;;;;;;6204518;23;19935;-83
2022/06/03 15:57:01;;;;;;;;;;;;;;;;;;6208015;23;19920;-83
2022/06/03 15:59:27;;;;;;;;;;;;;;;;;;6204619;23;19923;-83
2022/06/03 16:01:54;;;;;;;;;;;;;;;;;;6266273;22;19937;-83
2022/06/03 16:04:20;;;;;;;;;;;;;;;;;;6217125;22;19919;-84
2022/06/03 16:06:56;;;;;;;;;;;;;;;;;;6269168;22;19919;-84
2022/06/03 16:09:22;;;;;;;;;;;;;;;;;;6265717;22;19919;-84
2022/06/03 16:11:48;;;;;;;;;;;;;;;;;;6240218;22;19989;-84
2022/06/03 16:14:15;;;;;;;;;;;;;;;;;;6268896;22;19919;-83
2022/06/03 16:16:43;;;;;;;;;;;;;;;;;;6265929;22;20455;-83
2022/06/03 16:19:09;;;;;;;;;;;;;;;;;;6268675;22;19919;-84
2022/06/03 16:21:36;;;;;;;;;;;;;;;;;;6266178;22;19934;-84
2022/06/03 16:24:03;;;;;;;;;;;;;;;;;;6268200;22;19915;-83
2022/06/03 16:26:31;;;;;;;;;;;;;;;;;;6236195;22;20352;-84
2022/06/03 16:28:58;;;;;;;;;;;;;;;;;;6239672;22;20328;-83
2022/06/03 16:31:24;;;;;;;;;;;;;;;;;;6261933;22;19923;-84
2022/06/03 16:33:50;;;;;;;;;;;;;;;;;;6215217;22;19962;-83
2022/06/03 16:36:17;;;;;;;;;;;;;;;;;;6237556;22;19922;-84
2022/06/03 16:38:45;;;;;;;;;;;;;;;;;;6236722;22;19945;-83
2022/06/03 16:41:12;;;;;;;;;;;;;;;;;;6216140;22;20296;-83
2022/06/03 16:43:39;;;;;;;;;;;;;;;;;;6213884;22;19919;-83
2022/06/03 16:46:11;;;;;;;;;;;;;;;;;;6267202;22;19926;-83
2022/06/03 16:48:39;;;;;;;;;;;;;;;;;;6214135;22;19986;-83
2022/06/03 16:51:06;;;;;;;;;;;;;;;;;;6265811;22;19930;-83
2022/06/03 16:53:35;;;;;;;;;;;;;;;;;;6211756;22;19930;-83
2022/06/03 16:56:02;;;;;;;;;;;;;;;;;;6239315;22;19915;-83
2022/06/03 16:58:30;;;;;;;;;;;;;;;;;;6264722;22;19938;-83
2022/06/03 17:00:56;;;;;;;;;;;;;;;;;;6265644;22;19923;-83
2022/06/03 17:03:22;;;;;;;;;;;;;;;;;;6266395;22;19968;-83
2022/06/03 17:06:03;;;;;;;;;;;;;;;;;;6173466;23;19939;-83
2022/06/03 17:08:32;;;;;;;;;;;;;;;;;;6170938;23;20447;-84
2022/06/03 17:11:06;;;;;;;;;;;;;;;;;;6173925;23;19986;-83
2022/06/03 17:13:32;;;;;;;;;;;;;;;;;;6172247;23;19920;-83
2022/06/03 17:15:59;;;;;;;;;;;;;;;;;;6174257;23;20418;-83
2022/06/03 17:18:26;;;;;;;;;;;;;;;;;;6170111;23;19994;-83
2022/06/03 17:20:54;;;;;;;;;;;;;;;;;;6173517;23;19920;-83
2022/06/03 17:23:24;;;;;;;;;;;;;;;;;;6147083;23;19975;-84
2022/06/03 17:25:52;;;;;;;;;;;;;;;;;;6171261;23;19920;-83
2022/06/03 17:28:22;;;;;;;;;;;;;;;;;;6145801;23;19916;-83